sensor_id;sensor_type;location;lat;lon;timestamp;temperature;humidity
6355;DHT22;3210;48.708;9.030;2022-08-25T00:00:47;17.80;99.90
6355;DHT22;3210;48.708;9.030;2022-08-25T00:03:14;17.80;99.90
6355;DHT22;3210;48.708;9.030;2022-08-25T00:05:42;17.80;99.90
6355;DHT22;3210;48.708;9.030;2022-08-25T00:08:08;17.80;99.90
6355;DHT22;3210;48.708;9.030;2022-08-25T00:10:36;17.80;99.90
6355;DHT22;3210;48.708;9.030;2022-08-25T00:13:04;17.80;99.90
6355;DHT22;3210;48.708;9.030;2022-08-25T00:15:33;17.80;1.00
6355;DHT22;3210;48.708;9.030;2022-08-25T00:18:00;17.80;48.00
6355;DHT22;3210;48.708;9.030;2022-08-25T00:20:28;17.70;99.90
6355;DHT22;3210;48.708;9.030;2022-08-25T00:22:54;17.70;99.90
6355;DHT22;3210;48.708;9.030;2022-08-25T00:25:21;17.70;99.90
6355;DHT22;3210;48.708;9.030;2022-08-25T00:27:49;17.60;99.90
6355;DHT22;3210;48.708;9.030;2022-08-25T00:30:16;17.60;99.90
6355;DHT22;3210;48.708;9.030;2022-08-25T00:32:45;17.50;99.90
6355;DHT22;3210;48.708;9.030;2022-08-25T00:35:13;17.50;1.00
6355;DHT22;3210;48.708;9.030;2022-08-25T00:37:40;17.50;1.00
6355;DHT22;3210;48.708;9.030;2022-08-25T00:40:08;17.40;1.00
6355;DHT22;3210;48.708;9.030;2022-08-25T00:42:35;17.40;1.00
6355;DHT22;3210;48.708;9.030;2022-08-25T00:45:04;17.50;1.00
6355;DHT22;3210;48.708;9.030;2022-08-25T00:47:31;17.50;1.00
6355;DHT22;3210;48.708;9.030;2022-08-25T00:50:03;17.50;1.00
6355;DHT22;3210;48.708;9.030;2022-08-25T00:52:33;17.50;1.00
6355;DHT22;3210;48.708;9.030;2022-08-25T00:55:06;17.30;78.00
6355;DHT22;3210;48.708;9.030;2022-08-25T00:57:38;17.20;99.90
6355;DHT22;3210;48.708;9.030;2022-08-25T01:00:11;17.30;73.50
6355;DHT22;3210;48.708;9.030;2022-08-25T01:02:39;17.30;99.90
6355;DHT22;3210;48.708;9.030;2022-08-25T01:05:08;17.20;99.90
6355;DHT22;3210;48.708;9.030;2022-08-25T01:07:35;17.20;99.90
6355;DHT22;3210;48.708;9.030;2022-08-25T01:10:04;17.10;99.90
6355;DHT22;3210;48.708;9.030;2022-08-25T01:12:32;17.20;99.90
6355;DHT22;3210;48.708;9.030;2022-08-25T01:15:00;17.20;99.90
6355;DHT22;3210;48.708;9.030;2022-08-25T01:17:33;17.20;99.90
6355;DHT22;3210;48.708;9.030;2022-08-25T01:20:00;17.10;99.90
6355;DHT22;3210;48.708;9.030;2022-08-25T01:22:28;17.10;99.90
6355;DHT22;3210;48.708;9.030;2022-08-25T01:24:59;17.10;99.90
6355;DHT22;3210;48.708;9.030;2022-08-25T01:27:28;17.10;99.90
6355;DHT22;3210;48.708;9.030;2022-08-25T01:29:55;17.10;99.90
6355;DHT22;3210;48.708;9.030;2022-08-25T01:32:23;17.00;99.90
6355;DHT22;3210;48.708;9.030;2022-08-25T01:34:49;17.00;99.90
6355;DHT22;3210;48.708;9.030;2022-08-25T01:37:16;17.00;99.90
6355;DHT22;3210;48.708;9.030;2022-08-25T01:39:45;17.00;99.90
6355;DHT22;3210;48.708;9.030;2022-08-25T01:45:05;17.00;99.90
6355;DHT22;3210;48.708;9.030;2022-08-25T01:47:32;17.00;99.90
6355;DHT22;3210;48.708;9.030;2022-08-25T01:49:59;17.00;99.90
6355;DHT22;3210;48.708;9.030;2022-08-25T01:52:28;16.90;99.90
6355;DHT22;3210;48.708;9.030;2022-08-25T01:54:58;16.90;99.90
6355;DHT22;3210;48.708;9.030;2022-08-25T01:57:28;16.80;99.90
6355;DHT22;3210;48.708;9.030;2022-08-25T01:59:55;17.00;99.90
6355;DHT22;3210;48.708;9.030;2022-08-25T02:02:22;17.00;99.90
6355;DHT22;3210;48.708;9.030;2022-08-25T02:04:49;16.90;99.90
6355;DHT22;3210;48.708;9.030;2022-08-25T02:07:17;16.80;99.90
6355;DHT22;3210;48.708;9.030;2022-08-25T02:09:44;16.80;99.90
6355;DHT22;3210;48.708;9.030;2022-08-25T02:12:12;16.80;99.90
6355;DHT22;3210;48.708;9.030;2022-08-25T02:14:39;16.80;99.90
6355;DHT22;3210;48.708;9.030;2022-08-25T02:17:06;16.80;99.90
6355;DHT22;3210;48.708;9.030;2022-08-25T02:19:34;16.90;99.90
6355;DHT22;3210;48.708;9.030;2022-08-25T02:22:01;16.80;99.90
6355;DHT22;3210;48.708;9.030;2022-08-25T02:24:27;16.80;99.90
6355;DHT22;3210;48.708;9.030;2022-08-25T02:26:55;16.80;99.90
6355;DHT22;3210;48.708;9.030;2022-08-25T02:29:23;16.70;99.90
6355;DHT22;3210;48.708;9.030;2022-08-25T02:31:50;16.70;99.90
6355;DHT22;3210;48.708;9.030;2022-08-25T02:34:17;16.70;99.90
6355;DHT22;3210;48.708;9.030;2022-08-25T02:36:44;16.70;99.90
6355;DHT22;3210;48.708;9.030;2022-08-25T02:39:11;16.70;99.90
6355;DHT22;3210;48.708;9.030;2022-08-25T02:41:39;16.70;99.90
6355;DHT22;3210;48.708;9.030;2022-08-25T02:44:07;16.70;99.90
6355;DHT22;3210;48.708;9.030;2022-08-25T02:46:35;16.70;99.90
6355;DHT22;3210;48.708;9.030;2022-08-25T02:49:03;16.80;99.90
6355;DHT22;3210;48.708;9.030;2022-08-25T02:51:30;16.70;99.90
6355;DHT22;3210;48.708;9.030;2022-08-25T02:53:58;16.70;99.90
6355;DHT22;3210;48.708;9.030;2022-08-25T02:56:26;16.50;99.90
6355;DHT22;3210;48.708;9.030;2022-08-25T02:58:54;16.50;99.90
6355;DHT22;3210;48.708;9.030;2022-08-25T03:01:21;16.40;99.90
6355;DHT22;3210;48.708;9.030;2022-08-25T03:03:49;16.30;99.90
6355;DHT22;3210;48.708;9.030;2022-08-25T03:06:19;16.30;99.90
6355;DHT22;3210;48.708;9.030;2022-08-25T03:08:49;16.30;99.90
6355;DHT22;3210;48.708;9.030;2022-08-25T03:11:15;16.30;99.90
6355;DHT22;3210;48.708;9.030;2022-08-25T03:13:43;16.30;99.90
6355;DHT22;3210;48.708;9.030;2022-08-25T03:16:09;16.30;99.90
6355;DHT22;3210;48.708;9.030;2022-08-25T03:18:37;16.30;99.90
6355;DHT22;3210;48.708;9.030;2022-08-25T03:21:09;16.40;99.90
6355;DHT22;3210;48.708;9.030;2022-08-25T03:23:38;16.50;99.90
6355;DHT22;3210;48.708;9.030;2022-08-25T03:26:05;16.50;99.90
6355;DHT22;3210;48.708;9.030;2022-08-25T03:28:49;16.50;99.90
6355;DHT22;3210;48.708;9.030;2022-08-25T03:31:16;16.30;99.90
6355;DHT22;3210;48.708;9.030;2022-08-25T03:33:43;16.20;99.90
6355;DHT22;3210;48.708;9.030;2022-08-25T03:36:12;16.10;99.90
6355;DHT22;3210;48.708;9.030;2022-08-25T03:38:39;16.00;99.90
6355;DHT22;3210;48.708;9.030;2022-08-25T03:41:13;15.80;99.90
6355;DHT22;3210;48.708;9.030;2022-08-25T03:43:41;15.80;99.90
6355;DHT22;3210;48.708;9.030;2022-08-25T03:46:08;16.00;99.90
6355;DHT22;3210;48.708;9.030;2022-08-25T03:48:35;16.00;99.90
6355;DHT22;3210;48.708;9.030;2022-08-25T03:51:02;16.00;99.90
6355;DHT22;3210;48.708;9.030;2022-08-25T03:53:30;16.10;99.90
6355;DHT22;3210;48.708;9.030;2022-08-25T03:55:57;16.00;99.90
6355;DHT22;3210;48.708;9.030;2022-08-25T03:58:23;16.00;99.90
6355;DHT22;3210;48.708;9.030;2022-08-25T04:00:50;16.10;99.90
6355;DHT22;3210;48.708;9.030;2022-08-25T04:03:18;16.10;99.90
6355;DHT22;3210;48.708;9.030;2022-08-25T04:05:46;16.00;99.90
6355;DHT22;3210;48.708;9.030;2022-08-25T04:08:12;16.00;99.90
6355;DHT22;3210;48.708;9.030;2022-08-25T04:10:41;16.00;99.90
6355;DHT22;3210;48.708;9.030;2022-08-25T04:13:07;16.00;99.90
6355;DHT22;3210;48.708;9.030;2022-08-25T04:15:41;16.00;99.90
6355;DHT22;3210;48.708;9.030;2022-08-25T04:18:08;16.00;99.90
6355;DHT22;3210;48.708;9.030;2022-08-25T04:20:38;15.90;99.90
6355;DHT22;3210;48.708;9.030;2022-08-25T04:23:07;15.90;99.90
6355;DHT22;3210;48.708;9.030;2022-08-25T04:25:34;15.80;99.90
6355;DHT22;3210;48.708;9.030;2022-08-25T04:28:02;15.70;99.90
6355;DHT22;3210;48.708;9.030;2022-08-25T04:30:29;15.60;99.90
6355;DHT22;3210;48.708;9.030;2022-08-25T04:32:56;15.60;99.90
6355;DHT22;3210;48.708;9.030;2022-08-25T04:35:23;15.70;99.90
6355;DHT22;3210;48.708;9.030;2022-08-25T04:37:50;15.70;99.90
6355;DHT22;3210;48.708;9.030;2022-08-25T04:40:16;15.70;99.90
6355;DHT22;3210;48.708;9.030;2022-08-25T04:42:44;15.70;99.90
6355;DHT22;3210;48.708;9.030;2022-08-25T04:45:12;15.80;99.90
6355;DHT22;3210;48.708;9.030;2022-08-25T04:47:39;15.80;99.90
6355;DHT22;3210;48.708;9.030;2022-08-25T04:50:07;15.80;99.90
6355;DHT22;3210;48.708;9.030;2022-08-25T04:52:33;15.70;99.90
6355;DHT22;3210;48.708;9.030;2022-08-25T04:55:00;15.70;99.90
6355;DHT22;3210;48.708;9.030;2022-08-25T04:57:27;15.70;99.90
6355;DHT22;3210;48.708;9.030;2022-08-25T04:59:54;15.70;99.90
6355;DHT22;3210;48.708;9.030;2022-08-25T05:02:22;15.70;99.90
6355;DHT22;3210;48.708;9.030;2022-08-25T05:04:50;15.80;99.90
6355;DHT22;3210;48.708;9.030;2022-08-25T05:07:17;15.70;99.90
6355;DHT22;3210;48.708;9.030;2022-08-25T05:09:44;15.80;99.90
6355;DHT22;3210;48.708;9.030;2022-08-25T05:12:10;15.80;99.90
6355;DHT22;3210;48.708;9.030;2022-08-25T05:14:38;15.80;99.90
6355;DHT22;3210;48.708;9.030;2022-08-25T05:17:04;15.90;99.90
6355;DHT22;3210;48.708;9.030;2022-08-25T05:19:33;16.00;99.90
6355;DHT22;3210;48.708;9.030;2022-08-25T05:22:01;16.10;99.90
6355;DHT22;3210;48.708;9.030;2022-08-25T05:24:28;16.10;99.90
6355;DHT22;3210;48.708;9.030;2022-08-25T05:26:55;16.20;99.90
6355;DHT22;3210;48.708;9.030;2022-08-25T05:29:22;16.30;99.90
6355;DHT22;3210;48.708;9.030;2022-08-25T05:31:49;16.60;99.90
6355;DHT22;3210;48.708;9.030;2022-08-25T05:34:16;16.50;99.90
6355;DHT22;3210;48.708;9.030;2022-08-25T05:36:45;16.60;99.90
6355;DHT22;3210;48.708;9.030;2022-08-25T05:39:12;16.70;99.90
6355;DHT22;3210;48.708;9.030;2022-08-25T05:41:39;16.80;99.90
6355;DHT22;3210;48.708;9.030;2022-08-25T05:44:06;16.90;99.90
6355;DHT22;3210;48.708;9.030;2022-08-25T05:46:33;16.90;99.90
6355;DHT22;3210;48.708;9.030;2022-08-25T05:48:59;17.00;99.90
6355;DHT22;3210;48.708;9.030;2022-08-25T05:51:26;17.10;99.90
6355;DHT22;3210;48.708;9.030;2022-08-25T05:53:54;17.20;99.90
6355;DHT22;3210;48.708;9.030;2022-08-25T05:56:21;17.30;99.90
6355;DHT22;3210;48.708;9.030;2022-08-25T05:58:48;17.40;99.90
6355;DHT22;3210;48.708;9.030;2022-08-25T06:01:23;17.50;99.90
6355;DHT22;3210;48.708;9.030;2022-08-25T06:04:07;17.60;99.90
6355;DHT22;3210;48.708;9.030;2022-08-25T06:06:34;17.80;99.90
6355;DHT22;3210;48.708;9.030;2022-08-25T06:09:03;18.00;99.90
6355;DHT22;3210;48.708;9.030;2022-08-25T06:11:33;18.00;99.90
6355;DHT22;3210;48.708;9.030;2022-08-25T06:14:00;18.20;71.60
6355;DHT22;3210;48.708;9.030;2022-08-25T06:16:27;18.40;1.00
6355;DHT22;3210;48.708;9.030;2022-08-25T06:18:54;18.50;1.00
6355;DHT22;3210;48.708;9.030;2022-08-25T06:21:20;18.60;1.00
6355;DHT22;3210;48.708;9.030;2022-08-25T06:23:47;18.70;1.00
6355;DHT22;3210;48.708;9.030;2022-08-25T06:26:16;18.80;1.00
6355;DHT22;3210;48.708;9.030;2022-08-25T06:28:43;18.90;1.00
6355;DHT22;3210;48.708;9.030;2022-08-25T06:31:09;19.00;99.90
6355;DHT22;3210;48.708;9.030;2022-08-25T06:33:36;19.20;3.60
6355;DHT22;3210;48.708;9.030;2022-08-25T06:36:04;19.40;1.00
6355;DHT22;3210;48.708;9.030;2022-08-25T06:38:30;19.50;1.00
6355;DHT22;3210;48.708;9.030;2022-08-25T06:41:01;19.60;99.90
6355;DHT22;3210;48.708;9.030;2022-08-25T06:43:29;19.60;99.90
6355;DHT22;3210;48.708;9.030;2022-08-25T06:45:57;19.70;1.00
6355;DHT22;3210;48.708;9.030;2022-08-25T06:48:24;19.70;90.20
6355;DHT22;3210;48.708;9.030;2022-08-25T06:50:51;19.90;1.00
6355;DHT22;3210;48.708;9.030;2022-08-25T06:53:18;20.00;99.90
6355;DHT22;3210;48.708;9.030;2022-08-25T06:55:54;20.10;1.00
6355;DHT22;3210;48.708;9.030;2022-08-25T06:58:21;20.10;9.10
6355;DHT22;3210;48.708;9.030;2022-08-25T07:00:49;20.30;99.90
6355;DHT22;3210;48.708;9.030;2022-08-25T07:03:16;20.40;1.00
6355;DHT22;3210;48.708;9.030;2022-08-25T07:05:50;20.60;99.90
6355;DHT22;3210;48.708;9.030;2022-08-25T07:08:16;20.70;99.90
6355;DHT22;3210;48.708;9.030;2022-08-25T07:10:43;20.90;99.90
6355;DHT22;3210;48.708;9.030;2022-08-25T07:13:10;20.90;99.90
6355;DHT22;3210;48.708;9.030;2022-08-25T07:15:37;21.00;99.90
6355;DHT22;3210;48.708;9.030;2022-08-25T07:18:06;21.10;99.90
6355;DHT22;3210;48.708;9.030;2022-08-25T07:20:33;21.20;99.90
6355;DHT22;3210;48.708;9.030;2022-08-25T07:23:00;21.30;1.00
6355;DHT22;3210;48.708;9.030;2022-08-25T07:25:28;21.50;1.00
6355;DHT22;3210;48.708;9.030;2022-08-25T07:27:54;21.60;1.00
6355;DHT22;3210;48.708;9.030;2022-08-25T07:30:21;21.60;99.90
6355;DHT22;3210;48.708;9.030;2022-08-25T07:32:48;21.60;99.90
6355;DHT22;3210;48.708;9.030;2022-08-25T07:35:16;21.80;99.90
6355;DHT22;3210;48.708;9.030;2022-08-25T07:37:45;21.90;99.90
6355;DHT22;3210;48.708;9.030;2022-08-25T07:40:14;22.10;99.90
6355;DHT22;3210;48.708;9.030;2022-08-25T07:42:42;22.20;1.00
6355;DHT22;3210;48.708;9.030;2022-08-25T07:45:10;22.30;1.00
6355;DHT22;3210;48.708;9.030;2022-08-25T07:47:37;22.30;1.00
6355;DHT22;3210;48.708;9.030;2022-08-25T07:50:05;22.40;1.00
6355;DHT22;3210;48.708;9.030;2022-08-25T07:52:35;22.40;30.90
6355;DHT22;3210;48.708;9.030;2022-08-25T07:55:02;22.50;1.00
6355;DHT22;3210;48.708;9.030;2022-08-25T07:57:29;22.70;1.00
6355;DHT22;3210;48.708;9.030;2022-08-25T07:59:56;22.80;99.90
6355;DHT22;3210;48.708;9.030;2022-08-25T08:02:24;22.80;99.90
6355;DHT22;3210;48.708;9.030;2022-08-25T08:04:52;22.70;99.90
6355;DHT22;3210;48.708;9.030;2022-08-25T08:07:20;22.60;1.00
6355;DHT22;3210;48.708;9.030;2022-08-25T08:09:49;22.80;99.90
6355;DHT22;3210;48.708;9.030;2022-08-25T08:12:16;22.80;99.90
6355;DHT22;3210;48.708;9.030;2022-08-25T08:14:43;23.00;99.90
6355;DHT22;3210;48.708;9.030;2022-08-25T08:17:10;23.10;99.90
6355;DHT22;3210;48.708;9.030;2022-08-25T08:19:38;23.00;99.90
6355;DHT22;3210;48.708;9.030;2022-08-25T08:22:05;23.00;99.90
6355;DHT22;3210;48.708;9.030;2022-08-25T08:24:33;23.20;99.90
6355;DHT22;3210;48.708;9.030;2022-08-25T08:27:05;23.30;99.90
6355;DHT22;3210;48.708;9.030;2022-08-25T08:29:33;23.30;64.80
6355;DHT22;3210;48.708;9.030;2022-08-25T08:32:00;23.30;80.00
6355;DHT22;3210;48.708;9.030;2022-08-25T08:34:27;23.30;99.90
6355;DHT22;3210;48.708;9.030;2022-08-25T08:36:54;23.40;77.40
6355;DHT22;3210;48.708;9.030;2022-08-25T08:39:21;23.60;7.40
6355;DHT22;3210;48.708;9.030;2022-08-25T08:42:00;23.60;1.00
6355;DHT22;3210;48.708;9.030;2022-08-25T08:45:02;23.60;1.00
6355;DHT22;3210;48.708;9.030;2022-08-25T08:47:37;23.80;1.00
6355;DHT22;3210;48.708;9.030;2022-08-25T08:50:18;23.90;1.00
6355;DHT22;3210;48.708;9.030;2022-08-25T08:52:52;24.00;1.00
6355;DHT22;3210;48.708;9.030;2022-08-25T08:55:25;24.00;1.00
6355;DHT22;3210;48.708;9.030;2022-08-25T08:57:56;24.20;1.00
6355;DHT22;3210;48.708;9.030;2022-08-25T09:00:25;24.40;1.00
6355;DHT22;3210;48.708;9.030;2022-08-25T09:02:56;24.50;1.00
6355;DHT22;3210;48.708;9.030;2022-08-25T09:05:26;24.60;99.90
6355;DHT22;3210;48.708;9.030;2022-08-25T09:07:56;24.50;1.00
6355;DHT22;3210;48.708;9.030;2022-08-25T09:10:25;24.40;1.00
6355;DHT22;3210;48.708;9.030;2022-08-25T09:13:02;24.50;1.00
6355;DHT22;3210;48.708;9.030;2022-08-25T09:15:39;24.40;1.00
6355;DHT22;3210;48.708;9.030;2022-08-25T09:18:32;24.60;99.90
6355;DHT22;3210;48.708;9.030;2022-08-25T09:21:10;24.70;1.00
6355;DHT22;3210;48.708;9.030;2022-08-25T09:23:59;24.90;99.90
6355;DHT22;3210;48.708;9.030;2022-08-25T09:26:34;25.00;99.90
6355;DHT22;3210;48.708;9.030;2022-08-25T09:29:07;25.20;99.90
6355;DHT22;3210;48.708;9.030;2022-08-25T09:31:39;25.20;99.90
6355;DHT22;3210;48.708;9.030;2022-08-25T09:34:11;25.20;99.90
6355;DHT22;3210;48.708;9.030;2022-08-25T09:36:38;25.50;99.90
6355;DHT22;3210;48.708;9.030;2022-08-25T09:39:06;25.50;99.90
6355;DHT22;3210;48.708;9.030;2022-08-25T09:41:48;25.70;99.90
6355;DHT22;3210;48.708;9.030;2022-08-25T09:44:23;25.80;99.90
6355;DHT22;3210;48.708;9.030;2022-08-25T09:46:59;25.80;99.90
6355;DHT22;3210;48.708;9.030;2022-08-25T09:49:34;26.00;99.90
6355;DHT22;3210;48.708;9.030;2022-08-25T09:52:28;25.70;99.90
6355;DHT22;3210;48.708;9.030;2022-08-25T09:54:59;26.10;99.90
6355;DHT22;3210;48.708;9.030;2022-08-25T09:57:30;26.40;99.90
6355;DHT22;3210;48.708;9.030;2022-08-25T10:00:10;26.50;99.90
6355;DHT22;3210;48.708;9.030;2022-08-25T10:02:40;26.50;73.30
6355;DHT22;3210;48.708;9.030;2022-08-25T10:05:20;26.60;33.80
6355;DHT22;3210;48.708;9.030;2022-08-25T10:07:52;26.60;19.00
6355;DHT22;3210;48.708;9.030;2022-08-25T10:10:28;26.40;93.00
6355;DHT22;3210;48.708;9.030;2022-08-25T10:12:55;26.60;62.60
6355;DHT22;3210;48.708;9.030;2022-08-25T10:15:27;26.50;87.80
6355;DHT22;3210;48.708;9.030;2022-08-25T10:18:18;26.60;92.10
6355;DHT22;3210;48.708;9.030;2022-08-25T10:21:04;26.60;51.70
6355;DHT22;3210;48.708;9.030;2022-08-25T10:23:33;26.90;24.20
6355;DHT22;3210;48.708;9.030;2022-08-25T10:26:03;27.10;21.40
6355;DHT22;3210;48.708;9.030;2022-08-25T10:28:34;27.20;15.50
6355;DHT22;3210;48.708;9.030;2022-08-25T10:31:08;27.50;1.00
6355;DHT22;3210;48.708;9.030;2022-08-25T10:33:47;27.50;1.00
6355;DHT22;3210;48.708;9.030;2022-08-25T10:36:20;27.40;1.00
6355;DHT22;3210;48.708;9.030;2022-08-25T10:38:51;27.50;1.00
6355;DHT22;3210;48.708;9.030;2022-08-25T10:41:37;27.70;1.00
6355;DHT22;3210;48.708;9.030;2022-08-25T10:44:14;27.70;1.00
6355;DHT22;3210;48.708;9.030;2022-08-25T10:47:13;27.80;1.00
6355;DHT22;3210;48.708;9.030;2022-08-25T10:49:47;28.00;1.00
6355;DHT22;3210;48.708;9.030;2022-08-25T10:52:18;27.80;1.00
6355;DHT22;3210;48.708;9.030;2022-08-25T10:54:56;27.60;1.00
6355;DHT22;3210;48.708;9.030;2022-08-25T10:57:31;27.50;1.00
6355;DHT22;3210;48.708;9.030;2022-08-25T11:00:04;27.80;1.00
6355;DHT22;3210;48.708;9.030;2022-08-25T11:02:55;27.90;1.00
6355;DHT22;3210;48.708;9.030;2022-08-25T11:05:29;27.60;1.00
6355;DHT22;3210;48.708;9.030;2022-08-25T11:08:03;27.10;1.00
6355;DHT22;3210;48.708;9.030;2022-08-25T11:10:38;26.70;1.00
6355;DHT22;3210;48.708;9.030;2022-08-25T11:13:10;26.60;12.50
6355;DHT22;3210;48.708;9.030;2022-08-25T11:15:45;26.80;33.70
6355;DHT22;3210;48.708;9.030;2022-08-25T11:18:14;26.80;7.50
6355;DHT22;3210;48.708;9.030;2022-08-25T11:20:47;27.20;1.00
6355;DHT22;3210;48.708;9.030;2022-08-25T11:23:19;27.40;1.00
6355;DHT22;3210;48.708;9.030;2022-08-25T11:25:50;27.10;1.00
6355;DHT22;3210;48.708;9.030;2022-08-25T11:28:20;26.90;1.00
6355;DHT22;3210;48.708;9.030;2022-08-25T11:30:52;26.70;1.00
6355;DHT22;3210;48.708;9.030;2022-08-25T11:33:23;26.50;1.00
6355;DHT22;3210;48.708;9.030;2022-08-25T11:35:55;26.50;1.00
6355;DHT22;3210;48.708;9.030;2022-08-25T11:38:33;26.60;1.00
6355;DHT22;3210;48.708;9.030;2022-08-25T11:41:13;27.00;1.00
6355;DHT22;3210;48.708;9.030;2022-08-25T11:43:57;27.30;1.00
6355;DHT22;3210;48.708;9.030;2022-08-25T11:46:39;27.70;1.00
6355;DHT22;3210;48.708;9.030;2022-08-25T11:52:06;28.30;1.00
6355;DHT22;3210;48.708;9.030;2022-08-25T11:54:36;28.40;1.00
6355;DHT22;3210;48.708;9.030;2022-08-25T11:57:05;28.50;1.00
6355;DHT22;3210;48.708;9.030;2022-08-25T12:00:06;28.50;1.00
6355;DHT22;3210;48.708;9.030;2022-08-25T12:02:38;28.30;1.00
6355;DHT22;3210;48.708;9.030;2022-08-25T12:05:08;28.40;1.00
6355;DHT22;3210;48.708;9.030;2022-08-25T12:07:59;28.40;1.00
6355;DHT22;3210;48.708;9.030;2022-08-25T12:10:56;28.40;1.00
6355;DHT22;3210;48.708;9.030;2022-08-25T12:13:40;28.60;1.00
6355;DHT22;3210;48.708;9.030;2022-08-25T12:16:39;28.50;1.00
6355;DHT22;3210;48.708;9.030;2022-08-25T12:19:27;28.50;1.00
6355;DHT22;3210;48.708;9.030;2022-08-25T12:21:56;28.50;1.00
6355;DHT22;3210;48.708;9.030;2022-08-25T12:24:43;28.30;1.00
6355;DHT22;3210;48.708;9.030;2022-08-25T12:27:21;28.10;1.00
6355;DHT22;3210;48.708;9.030;2022-08-25T12:29:52;28.00;1.00
6355;DHT22;3210;48.708;9.030;2022-08-25T12:32:33;27.90;1.00
6355;DHT22;3210;48.708;9.030;2022-08-25T12:35:16;28.00;1.00
6355;DHT22;3210;48.708;9.030;2022-08-25T12:38:01;27.90;1.00
6355;DHT22;3210;48.708;9.030;2022-08-25T12:40:34;27.70;1.00
6355;DHT22;3210;48.708;9.030;2022-08-25T12:43:05;27.70;1.00
6355;DHT22;3210;48.708;9.030;2022-08-25T12:45:38;28.00;1.00
6355;DHT22;3210;48.708;9.030;2022-08-25T12:48:41;28.40;1.00
6355;DHT22;3210;48.708;9.030;2022-08-25T12:51:15;28.30;1.00
6355;DHT22;3210;48.708;9.030;2022-08-25T12:53:47;28.40;1.00
6355;DHT22;3210;48.708;9.030;2022-08-25T12:56:26;28.60;1.00
6355;DHT22;3210;48.708;9.030;2022-08-25T12:59:03;28.40;1.00
6355;DHT22;3210;48.708;9.030;2022-08-25T13:01:39;28.20;1.00
6355;DHT22;3210;48.708;9.030;2022-08-25T13:04:53;28.20;1.00
6355;DHT22;3210;48.708;9.030;2022-08-25T13:07:33;27.80;1.00
6355;DHT22;3210;48.708;9.030;2022-08-25T13:10:24;28.10;1.00
6355;DHT22;3210;48.708;9.030;2022-08-25T13:12:59;27.80;1.00
6355;DHT22;3210;48.708;9.030;2022-08-25T13:15:38;27.60;1.00
6355;DHT22;3210;48.708;9.030;2022-08-25T13:18:21;27.70;1.00
6355;DHT22;3210;48.708;9.030;2022-08-25T13:20:51;27.50;1.00
6355;DHT22;3210;48.708;9.030;2022-08-25T13:23:24;27.40;1.00
6355;DHT22;3210;48.708;9.030;2022-08-25T13:25:52;27.30;1.00
6355;DHT22;3210;48.708;9.030;2022-08-25T13:28:25;27.40;1.00
6355;DHT22;3210;48.708;9.030;2022-08-25T13:31:00;27.50;1.00
6355;DHT22;3210;48.708;9.030;2022-08-25T13:33:27;27.60;1.00
6355;DHT22;3210;48.708;9.030;2022-08-25T13:35:57;27.40;1.00
6355;DHT22;3210;48.708;9.030;2022-08-25T13:38:43;27.50;1.00
6355;DHT22;3210;48.708;9.030;2022-08-25T13:41:16;27.70;1.00
6355;DHT22;3210;48.708;9.030;2022-08-25T13:43:46;27.50;1.00
6355;DHT22;3210;48.708;9.030;2022-08-25T13:46:18;27.60;1.00
6355;DHT22;3210;48.708;9.030;2022-08-25T13:48:45;27.60;1.00
6355;DHT22;3210;48.708;9.030;2022-08-25T13:51:20;27.60;1.00
6355;DHT22;3210;48.708;9.030;2022-08-25T13:53:54;27.60;1.00
6355;DHT22;3210;48.708;9.030;2022-08-25T13:56:27;27.50;1.00
6355;DHT22;3210;48.708;9.030;2022-08-25T13:58:57;27.70;1.00
6355;DHT22;3210;48.708;9.030;2022-08-25T14:01:26;27.70;1.00
6355;DHT22;3210;48.708;9.030;2022-08-25T14:03:56;27.70;1.00
6355;DHT22;3210;48.708;9.030;2022-08-25T14:06:24;27.70;1.00
6355;DHT22;3210;48.708;9.030;2022-08-25T14:09:11;27.60;1.00
6355;DHT22;3210;48.708;9.030;2022-08-25T14:11:43;27.40;1.00
6355;DHT22;3210;48.708;9.030;2022-08-25T14:14:30;27.60;1.00
6355;DHT22;3210;48.708;9.030;2022-08-25T14:17:03;27.70;1.00
6355;DHT22;3210;48.708;9.030;2022-08-25T14:19:31;28.00;1.00
6355;DHT22;3210;48.708;9.030;2022-08-25T14:22:00;28.30;1.00
6355;DHT22;3210;48.708;9.030;2022-08-25T14:24:32;28.60;1.00
6355;DHT22;3210;48.708;9.030;2022-08-25T14:27:00;29.00;1.00
6355;DHT22;3210;48.708;9.030;2022-08-25T14:29:29;28.90;1.00
6355;DHT22;3210;48.708;9.030;2022-08-25T14:31:56;29.10;1.00
6355;DHT22;3210;48.708;9.030;2022-08-25T14:34:25;29.10;1.00
6355;DHT22;3210;48.708;9.030;2022-08-25T14:36:53;29.10;1.00
6355;DHT22;3210;48.708;9.030;2022-08-25T14:39:20;29.00;1.00
6355;DHT22;3210;48.708;9.030;2022-08-25T14:41:47;28.80;1.00
6355;DHT22;3210;48.708;9.030;2022-08-25T14:44:15;28.70;1.00
6355;DHT22;3210;48.708;9.030;2022-08-25T14:46:48;28.60;1.00
6355;DHT22;3210;48.708;9.030;2022-08-25T14:49:18;28.30;1.00
6355;DHT22;3210;48.708;9.030;2022-08-25T14:51:46;28.10;1.00
6355;DHT22;3210;48.708;9.030;2022-08-25T14:54:14;28.10;1.00
6355;DHT22;3210;48.708;9.030;2022-08-25T14:56:44;27.90;1.00
6355;DHT22;3210;48.708;9.030;2022-08-25T14:59:11;27.90;1.00
6355;DHT22;3210;48.708;9.030;2022-08-25T15:01:38;28.00;1.00
6355;DHT22;3210;48.708;9.030;2022-08-25T15:04:10;28.10;1.00
6355;DHT22;3210;48.708;9.030;2022-08-25T15:06:38;28.40;1.00
6355;DHT22;3210;48.708;9.030;2022-08-25T15:09:08;28.40;1.00
6355;DHT22;3210;48.708;9.030;2022-08-25T15:11:39;28.70;1.00
6355;DHT22;3210;48.708;9.030;2022-08-25T15:14:06;28.60;1.00
6355;DHT22;3210;48.708;9.030;2022-08-25T15:16:37;28.70;1.00
6355;DHT22;3210;48.708;9.030;2022-08-25T15:19:07;28.70;1.00
6355;DHT22;3210;48.708;9.030;2022-08-25T15:21:36;28.40;1.00
6355;DHT22;3210;48.708;9.030;2022-08-25T15:24:04;28.20;1.00
6355;DHT22;3210;48.708;9.030;2022-08-25T15:26:38;28.40;1.00
6355;DHT22;3210;48.708;9.030;2022-08-25T15:29:05;28.50;1.00
6355;DHT22;3210;48.708;9.030;2022-08-25T15:31:32;28.40;1.00
6355;DHT22;3210;48.708;9.030;2022-08-25T15:33:59;28.40;1.00
6355;DHT22;3210;48.708;9.030;2022-08-25T15:36:27;28.50;1.00
6355;DHT22;3210;48.708;9.030;2022-08-25T15:38:54;28.40;1.00
6355;DHT22;3210;48.708;9.030;2022-08-25T15:41:21;28.00;1.00
6355;DHT22;3210;48.708;9.030;2022-08-25T15:43:48;28.00;1.00
